This is the latest recevied weather packets stored in our database for station/object VA7NEZ. If no packets are shown the sender has not sent any weather packets the latest 10 day(s).
| Time | Temp. | Humidity | Pressure | Rain* | Wind** | Luminosity | Snow |
|---|---|---|---|---|---|---|---|
| 1778258107 | 16.67° C | 42% | 1013 hPa | 0 mm | - | - | - |
| 1778257549 | 16.67° C | 44% | 1012.9 hPa | 0 mm | - | - | - |
| 1778257002 | 16.11° C | 46% | 1013 hPa | 0 mm | - | - | - |
| 1778256517 | 15.56° C | 46% | 1013.1 hPa | 0 mm | - | - | - |
| 1778255942 | 15.56° C | 47% | 1013.1 hPa | 0 mm | - | - | - |
| 1778254752 | 0° C | 100% | 1012.9 hPa | 0 mm | - | - | - |
| 1778253696 | 14.44° C | 51% | 1013.1 hPa | 0 mm | - | - | - |
| 1778253167 | 13.89° C | 52% | 1013.1 hPa | 0 mm | - | - | - |
| 1778252627 | 13.89° C | 53% | 1013.2 hPa | 0 mm | - | - | - |
| 1778250884 | 0° C | 100% | 1013 hPa | 0 mm | - | - | - |
| 1778250327 | 11.11° C | 62% | 1013.1 hPa | 0 mm | - | - | - |
| 1778249792 | 10.56° C | 66% | 1013.1 hPa | 0 mm | - | - | - |
| 1778249212 | 9.44° C | 67% | 1012.9 hPa | 0 mm | - | - | - |
| 1778248702 | 9.44° C | 67% | 1013.1 hPa | 0 mm | - | - | - |
| 1778246716 | 8.33° C | 68% | 1012.7 hPa | 0 mm | - | - | - |
| 1778245601 | 7.78° C | 73% | 1012.6 hPa | 0 mm | - | - | - |
| 1778245052 | 7.78° C | 72% | 1012.8 hPa | 0 mm | - | - | - |
| 1778244522 | 7.78° C | 67% | 1012.8 hPa | 0 mm | - | - | - |
| 1778243947 | 7.78° C | 68% | 1012.8 hPa | 0 mm | - | - | - |
| 1778242823 | 7.78° C | 67% | 1012.8 hPa | 0 mm | - | - | - |
| 1778242262 | 0° C | 100% | 1012.5 hPa | 0 mm | - | - | - |
| 1778241745 | 8.33° C | 68% | 1012.5 hPa | 0 mm | - | - | - |
| 1778241206 | 8.33° C | 65% | 1012.9 hPa | 0 mm | - | - | - |
| 1778240137 | 8.33° C | 65% | 1012.8 hPa | 0 mm | - | - | - |
| 1778239585 | 8.89° C | 67% | 1012.6 hPa | 0 mm | - | - | - |
* Rain latest hour (hover to see other rain measurements)
** Current wind speed in m/s (hover to see current wind gust speed)